createdAt,value
2024-04-24T00:01:28.012Z,8.73
2024-04-24T00:03:55.390Z,9.93
2024-04-24T00:06:23.759Z,8.20
2024-04-24T00:08:51.500Z,9.43
2024-04-24T00:11:19.918Z,9.20
2024-04-24T00:13:47.608Z,8.60
2024-04-24T00:16:14.994Z,10.02
2024-04-24T00:18:42.640Z,9.23
2024-04-24T00:21:11.633Z,9.32
2024-04-24T00:23:39.616Z,12.90
2024-04-24T00:26:07.621Z,10.02
2024-04-24T00:28:35.046Z,11.15
2024-04-24T00:31:02.880Z,9.75
2024-04-24T00:33:30.384Z,9.95
2024-04-24T00:35:57.888Z,10.73
2024-04-24T00:38:25.406Z,11.38
2024-04-24T00:40:52.808Z,9.60
2024-04-24T00:43:20.225Z,11.05
2024-04-24T00:45:48.392Z,9.40
2024-04-24T00:48:16.583Z,8.95
2024-04-24T00:50:45.905Z,9.73
2024-04-24T00:53:13.615Z,9.75
2024-04-24T00:55:42.202Z,9.52
2024-04-24T00:58:10.019Z,11.77
2024-04-24T01:00:39.537Z,9.75
2024-04-24T01:03:08.356Z,9.20
2024-04-24T01:05:37.014Z,9.70
2024-04-24T01:08:05.143Z,10.13
2024-04-24T01:10:32.536Z,10.60
2024-04-24T01:12:59.980Z,9.63
2024-04-24T01:15:27.378Z,13.23
2024-04-24T01:17:57.351Z,12.48
2024-04-24T01:20:28.445Z,11.32
2024-04-24T01:23:10.702Z,12.60
2024-04-24T01:26:10.977Z,12.35
2024-04-24T01:28:38.938Z,12.38
2024-04-24T01:31:06.781Z,13.23
2024-04-24T01:33:34.757Z,14.30
2024-04-24T01:36:02.132Z,12.70
2024-04-24T01:38:29.815Z,15.43
2024-04-24T01:40:57.408Z,11.93
2024-04-24T01:43:24.780Z,14.98
2024-04-24T01:45:52.408Z,12.85
2024-04-24T01:48:19.797Z,14.90
2024-04-24T01:50:47.706Z,13.80
2024-04-24T01:53:15.285Z,16.60
2024-04-24T01:55:42.650Z,14.52
2024-04-24T01:58:10.014Z,16.90
2024-04-24T02:00:37.719Z,15.98
2024-04-24T02:03:05.315Z,12.15
2024-04-24T02:05:32.716Z,13.55
2024-04-24T02:08:00.152Z,12.38
2024-04-24T02:10:27.544Z,13.30
2024-04-24T02:12:54.957Z,11.05
2024-04-24T02:15:22.322Z,12.15
2024-04-24T02:17:49.819Z,16.10
2024-04-24T02:20:17.404Z,11.82
2024-04-24T02:22:45.232Z,14.13
2024-04-24T02:25:31.816Z,12.38
2024-04-24T02:27:59.289Z,15.25
2024-04-24T02:30:26.697Z,15.95
2024-04-24T02:32:54.154Z,15.13
2024-04-24T02:35:22.226Z,16.30
2024-04-24T02:37:49.605Z,16.50
2024-04-24T02:40:17.162Z,18.50
2024-04-24T02:42:44.977Z,16.45
2024-04-24T02:45:12.337Z,19.15
2024-04-24T02:47:39.757Z,17.10
2024-04-24T02:50:07.267Z,17.17
2024-04-24T02:52:35.505Z,15.90
2024-04-24T02:55:02.861Z,14.55
2024-04-24T02:57:30.312Z,20.00
2024-04-24T02:59:57.624Z,22.35
2024-04-24T03:02:25.032Z,19.73
2024-04-24T03:04:52.466Z,22.60
2024-04-24T03:07:19.853Z,19.48
2024-04-24T03:09:47.238Z,21.70
2024-04-24T03:12:14.718Z,20.80
2024-04-24T03:14:42.101Z,21.70
2024-04-24T03:17:10.121Z,25.55
2024-04-24T03:19:38.770Z,20.77
2024-04-24T03:22:06.151Z,24.35
2024-04-24T03:24:33.818Z,26.60
2024-04-24T03:27:01.244Z,25.85
2024-04-24T03:29:28.796Z,24.00
2024-04-24T03:31:56.272Z,26.65
2024-04-24T03:34:24.769Z,23.73
2024-04-24T03:36:52.650Z,24.33
2024-04-24T03:39:19.961Z,24.83
2024-04-24T03:41:47.746Z,24.27
2024-04-24T03:44:15.180Z,25.95
2024-04-24T03:46:42.788Z,22.48
2024-04-24T03:49:10.341Z,20.85
2024-04-24T03:51:37.693Z,22.73
2024-04-24T03:54:05.105Z,22.90
2024-04-24T03:56:32.464Z,22.15
2024-04-24T03:59:00.180Z,22.02
2024-04-24T04:01:29.121Z,21.38
2024-04-24T04:03:57.606Z,19.25
2024-04-24T04:06:26.772Z,19.80
2024-04-24T04:08:54.119Z,21.88
2024-04-24T04:11:21.589Z,24.52
2024-04-24T04:13:48.990Z,22.83
2024-04-24T04:16:16.350Z,24.65
2024-04-24T04:18:43.810Z,22.95
2024-04-24T04:21:13.512Z,22.38
2024-04-24T04:23:41.065Z,25.70
2024-04-24T04:26:08.516Z,20.95
2024-04-24T04:28:36.339Z,24.38
2024-04-24T04:31:03.810Z,22.77
2024-04-24T04:33:31.430Z,25.02
2024-04-24T04:35:59.248Z,23.77
2024-04-24T04:38:26.648Z,21.60
2024-04-24T04:40:54.021Z,22.63
2024-04-24T04:43:23.598Z,20.33
2024-04-24T04:45:51.468Z,20.40
2024-04-24T04:48:19.046Z,18.35
2024-04-24T04:50:46.511Z,19.70
2024-04-24T04:53:14.103Z,20.20
2024-04-24T04:55:41.454Z,19.98
2024-04-24T04:58:08.850Z,18.05
2024-04-24T05:00:36.267Z,18.23
2024-04-24T05:03:03.708Z,18.23
2024-04-24T05:05:31.521Z,16.92
2024-04-24T05:07:58.920Z,18.92
2024-04-24T05:10:26.269Z,14.70
2024-04-24T05:12:53.870Z,16.88
2024-04-24T05:15:21.206Z,15.60
2024-04-24T05:17:48.832Z,16.23
2024-04-24T05:20:16.285Z,13.15
2024-04-24T05:22:51.917Z,15.40
2024-04-24T05:25:20.230Z,12.18
2024-04-24T05:28:06.560Z,12.07
2024-04-24T05:30:35.136Z,13.45
2024-04-24T05:33:04.316Z,10.73
2024-04-24T05:35:34.502Z,13.15
2024-04-24T05:38:01.924Z,9.60
2024-04-24T05:40:29.287Z,13.25
2024-04-24T05:42:56.626Z,9.60
2024-04-24T05:45:23.936Z,8.50
2024-04-24T05:47:51.430Z,11.70
2024-04-24T05:50:20.031Z,10.15
2024-04-24T05:52:47.478Z,8.73
2024-04-24T05:55:14.932Z,9.10
2024-04-24T05:57:42.308Z,7.75
2024-04-24T06:00:10.211Z,8.65
2024-04-24T06:02:37.676Z,5.72
2024-04-24T06:05:05.635Z,6.85
2024-04-24T06:07:33.546Z,8.45
2024-04-24T06:10:01.004Z,6.68
2024-04-24T06:12:28.346Z,7.00
2024-04-24T06:14:55.728Z,4.57
2024-04-24T06:17:23.146Z,5.93
2024-04-24T06:19:50.515Z,6.95
2024-04-24T06:22:17.904Z,7.07
2024-04-24T06:24:45.246Z,6.53
2024-04-24T06:27:12.612Z,4.80
2024-04-24T06:29:41.584Z,4.38
2024-04-24T06:32:09.036Z,5.38
2024-04-24T06:34:37.066Z,5.18
2024-04-24T06:37:04.621Z,5.63
2024-04-24T06:39:32.711Z,9.60
2024-04-24T06:42:00.075Z,6.35
2024-04-24T06:44:28.676Z,12.50
2024-04-24T06:46:56.401Z,5.82
2024-04-24T06:49:23.766Z,4.22
2024-04-24T06:51:52.012Z,7.28
2024-04-24T06:54:19.322Z,8.55
2024-04-24T06:56:47.398Z,6.70
2024-04-24T06:59:14.888Z,9.30
2024-04-24T07:01:42.662Z,7.68
2024-04-24T07:04:10.130Z,6.43
2024-04-24T07:06:37.485Z,6.50
2024-04-24T07:09:05.430Z,5.25
2024-04-24T07:11:33.265Z,7.18
2024-04-24T07:14:00.773Z,7.38
2024-04-24T07:16:30.081Z,6.43
2024-04-24T07:18:57.781Z,6.07
2024-04-24T07:21:26.899Z,6.63
2024-04-24T07:23:54.364Z,6.65
2024-04-24T07:26:21.785Z,6.47
2024-04-24T07:28:50.188Z,7.35
2024-04-24T07:31:17.620Z,6.72
2024-04-24T07:33:45.046Z,9.07
2024-04-24T07:36:12.512Z,9.05
2024-04-24T07:38:40.011Z,6.85
2024-04-24T07:41:09.246Z,6.90
2024-04-24T07:43:37.347Z,8.52
2024-04-24T07:46:06.724Z,7.93
2024-04-24T07:48:35.309Z,7.15
2024-04-24T07:51:02.721Z,7.22
2024-04-24T07:53:32.267Z,10.15
2024-04-24T07:56:00.788Z,7.63
2024-04-24T07:58:33.034Z,8.70
2024-04-24T08:01:01.321Z,8.20
2024-04-24T08:03:28.777Z,7.50
2024-04-24T08:05:56.576Z,8.70
2024-04-24T08:08:24.603Z,8.20
2024-04-24T08:10:52.775Z,7.45
2024-04-24T08:13:20.841Z,9.30
2024-04-24T08:15:56.143Z,7.28
2024-04-24T08:18:23.630Z,7.93
2024-04-24T08:20:51.236Z,10.65
2024-04-24T08:23:23.983Z,7.13
2024-04-24T08:25:54.355Z,9.45
2024-04-24T08:28:32.574Z,7.75
2024-04-24T08:31:06.060Z,7.70
2024-04-24T08:33:34.123Z,7.90
2024-04-24T08:36:13.170Z,8.35
2024-04-24T08:38:41.110Z,6.10
2024-04-24T08:41:09.170Z,6.15
2024-04-24T08:43:38.550Z,6.72
2024-04-24T08:46:07.524Z,8.05
2024-04-24T08:48:43.386Z,6.07
2024-04-24T08:51:12.689Z,7.50
2024-04-24T08:53:50.621Z,8.48
2024-04-24T08:56:21.674Z,7.90
2024-04-24T08:58:53.140Z,7.50
2024-04-24T09:01:23.129Z,16.77
2024-04-24T09:04:03.381Z,12.95
2024-04-24T09:06:31.618Z,10.15
2024-04-24T09:08:59.517Z,6.93
2024-04-24T09:11:27.388Z,6.88
2024-04-24T09:13:55.664Z,8.77
2024-04-24T09:16:23.512Z,7.30
2024-04-24T09:19:04.171Z,6.13
2024-04-24T09:21:33.399Z,6.80
2024-04-24T09:24:00.826Z,7.90
2024-04-24T09:26:28.808Z,8.23
2024-04-24T09:28:56.542Z,7.60
2024-04-24T09:31:24.212Z,6.53
2024-04-24T09:33:52.580Z,6.57
2024-04-24T09:36:19.963Z,8.60
2024-04-24T09:38:47.873Z,7.85
2024-04-24T09:41:15.793Z,6.97
2024-04-24T09:43:43.575Z,6.68
2024-04-24T09:46:11.050Z,8.60
2024-04-24T09:48:38.618Z,8.30
2024-04-24T09:51:11.142Z,9.63
2024-04-24T09:53:39.311Z,9.25
2024-04-24T09:56:24.216Z,11.98
2024-04-24T09:58:56.258Z,8.95
2024-04-24T10:01:24.814Z,7.60
2024-04-24T10:03:56.047Z,9.75
2024-04-24T10:06:24.578Z,8.00
2024-04-24T10:08:55.530Z,7.40
2024-04-24T10:11:40.781Z,8.82
2024-04-24T10:14:12.137Z,8.80
2024-04-24T10:16:40.079Z,9.43
2024-04-24T10:19:08.055Z,8.52
2024-04-24T10:21:36.603Z,8.90
2024-04-24T10:24:06.486Z,7.95
2024-04-24T10:26:35.126Z,10.48
2024-04-24T10:29:03.159Z,11.48
2024-04-24T10:31:30.603Z,9.35
2024-04-24T10:33:59.032Z,7.88
2024-04-24T10:36:27.894Z,10.32
2024-04-24T10:38:56.302Z,6.70
2024-04-24T10:41:23.940Z,7.78
2024-04-24T10:43:51.410Z,6.65
2024-04-24T10:46:20.840Z,8.60
2024-04-24T10:48:59.961Z,7.78
2024-04-24T10:51:32.249Z,9.13
2024-04-24T10:54:17.648Z,7.72
2024-04-24T10:56:49.247Z,7.60
2024-04-24T10:59:17.794Z,8.75
2024-04-24T11:01:53.278Z,8.55
2024-04-24T11:04:25.931Z,9.50
2024-04-24T11:06:53.630Z,11.88
2024-04-24T11:09:24.955Z,9.93
2024-04-24T11:11:55.054Z,7.90
2024-04-24T11:14:22.732Z,8.35
2024-04-24T11:16:57.452Z,7.97
2024-04-24T11:19:25.329Z,9.13
2024-04-24T11:21:52.730Z,7.38
2024-04-24T11:24:31.000Z,8.55
2024-04-24T11:26:58.982Z,13.80
2024-04-24T11:29:26.502Z,8.80
2024-04-24T11:31:56.671Z,9.43
2024-04-24T11:34:24.614Z,10.40
2024-04-24T11:36:52.186Z,8.48
2024-04-24T11:39:22.104Z,11.68
2024-04-24T11:41:51.333Z,10.50
2024-04-24T11:44:19.189Z,10.05
2024-04-24T11:46:48.763Z,15.48
2024-04-24T11:49:20.120Z,9.57
2024-04-24T11:51:50.947Z,15.75
2024-04-24T11:54:18.357Z,19.23
2024-04-24T11:56:46.869Z,11.45
2024-04-24T11:59:18.763Z,9.60
2024-04-24T12:01:46.821Z,9.50
2024-04-24T12:04:14.591Z,13.00
2024-04-24T12:06:43.856Z,9.98
2024-04-24T12:09:12.302Z,7.43
2024-04-24T12:11:44.737Z,7.13
2024-04-24T12:14:14.848Z,11.23
2024-04-24T12:16:43.131Z,10.38
2024-04-24T12:19:12.139Z,7.78
2024-04-24T12:21:39.985Z,7.30
2024-04-24T12:24:08.970Z,7.13
2024-04-24T12:26:36.665Z,8.80
2024-04-24T12:29:04.153Z,8.90
2024-04-24T12:31:31.831Z,10.65
2024-04-24T12:33:59.439Z,7.10
2024-04-24T12:36:26.899Z,8.18
2024-04-24T12:38:54.275Z,7.40
2024-04-24T12:41:21.670Z,6.97
2024-04-24T12:43:49.150Z,5.85
2024-04-24T12:46:16.477Z,5.38
2024-04-24T12:48:43.949Z,6.57
2024-04-24T12:51:11.500Z,5.38
2024-04-24T12:53:38.854Z,5.68
2024-04-24T12:56:09.317Z,5.25
2024-04-24T12:58:36.774Z,5.95
2024-04-24T13:01:04.760Z,5.25
2024-04-24T13:03:32.225Z,5.88
2024-04-24T13:05:59.658Z,4.70
2024-04-24T13:08:27.265Z,5.03
2024-04-24T13:10:54.731Z,4.88
2024-04-24T13:13:22.245Z,6.68
2024-04-24T13:15:52.213Z,5.13
2024-04-24T13:18:21.920Z,8.20
2024-04-24T13:20:50.111Z,5.78
2024-04-24T13:23:17.495Z,6.50
2024-04-24T13:25:44.967Z,5.57
2024-04-24T13:28:12.800Z,7.40
2024-04-24T13:30:40.147Z,6.53
2024-04-24T13:33:07.597Z,5.30
2024-04-24T13:35:36.999Z,6.40
2024-04-24T13:38:04.561Z,5.75
2024-04-24T13:40:32.261Z,4.85
2024-04-24T13:42:59.663Z,8.15
2024-04-24T13:45:26.999Z,4.88
2024-04-24T13:47:55.597Z,3.83
2024-04-24T13:50:23.144Z,4.22
2024-04-24T13:52:52.552Z,5.45
2024-04-24T13:55:20.510Z,4.13
2024-04-24T13:57:48.004Z,3.83
2024-04-24T14:00:15.487Z,4.80
2024-04-24T14:02:42.996Z,4.35
2024-04-24T14:05:12.747Z,4.85
2024-04-24T14:07:40.123Z,4.32
2024-04-24T14:10:07.800Z,5.13
2024-04-24T14:12:35.180Z,5.63
2024-04-24T14:15:02.579Z,5.90
2024-04-24T14:17:31.116Z,7.40
2024-04-24T14:19:58.766Z,5.60
2024-04-24T14:22:26.388Z,5.05
2024-04-24T14:24:53.802Z,7.13
2024-04-24T14:27:21.791Z,3.45
2024-04-24T14:29:50.175Z,4.18
2024-04-24T14:32:17.653Z,2.55
2024-04-24T14:34:46.258Z,2.95
2024-04-24T14:37:13.729Z,2.65
2024-04-24T14:39:41.429Z,3.33
2024-04-24T14:42:08.741Z,3.70
2024-04-24T14:44:36.142Z,5.93
2024-04-24T14:47:03.862Z,5.03
2024-04-24T14:49:31.321Z,4.90
2024-04-24T14:51:58.767Z,15.98
2024-04-24T14:54:26.165Z,4.72
2024-04-24T14:56:53.520Z,4.68
2024-04-24T14:59:21.384Z,3.95
2024-04-24T15:01:51.070Z,6.53
2024-04-24T15:04:19.404Z,5.45
2024-04-24T15:07:08.628Z,2.20
2024-04-24T15:09:36.375Z,3.70
2024-04-24T15:12:04.004Z,2.95
2024-04-24T15:14:31.776Z,3.35
2024-04-24T15:16:59.423Z,5.22
2024-04-24T15:19:27.228Z,3.40
2024-04-24T15:21:56.123Z,3.92
2024-04-24T15:24:24.652Z,5.82
2024-04-24T15:26:52.081Z,2.90
2024-04-24T15:29:19.438Z,3.60
2024-04-24T15:31:46.820Z,4.82
2024-04-24T15:34:15.883Z,2.95
2024-04-24T15:36:43.657Z,3.10
2024-04-24T15:39:11.150Z,5.78
2024-04-24T15:41:39.432Z,3.05
2024-04-24T15:44:07.415Z,4.43
2024-04-24T15:46:34.723Z,5.15
2024-04-24T15:49:02.090Z,2.53
2024-04-24T15:51:29.536Z,2.75
2024-04-24T15:53:56.882Z,3.13
2024-04-24T15:56:24.278Z,2.55
2024-04-24T15:58:52.084Z,2.28
2024-04-24T16:01:20.126Z,2.33
2024-04-24T16:03:47.525Z,3.03
2024-04-24T16:06:19.404Z,3.58
2024-04-24T16:08:47.005Z,3.78
2024-04-24T16:11:14.405Z,2.55
2024-04-24T16:13:41.833Z,3.55
2024-04-24T16:16:09.206Z,4.55
2024-04-24T16:18:43.045Z,4.35
2024-04-24T16:21:14.385Z,2.53
2024-04-24T16:23:41.871Z,3.70
2024-04-24T16:26:09.324Z,4.45
2024-04-24T16:28:36.959Z,3.25
2024-04-24T16:31:04.558Z,3.67
2024-04-24T16:33:32.097Z,3.90
2024-04-24T16:35:59.897Z,7.72
2024-04-24T16:38:27.440Z,3.90
2024-04-24T16:40:54.851Z,2.95
2024-04-24T16:43:24.094Z,4.95
2024-04-24T16:45:51.581Z,3.95
2024-04-24T16:48:20.381Z,4.03
2024-04-24T16:50:47.914Z,4.80
2024-04-24T16:53:15.316Z,4.13
2024-04-24T16:55:43.871Z,5.47
2024-04-24T16:58:11.219Z,4.50
2024-04-24T17:00:38.655Z,5.00
2024-04-24T17:03:06.250Z,4.43
2024-04-24T17:05:33.659Z,6.40
2024-04-24T17:08:01.017Z,3.35
2024-04-24T17:10:28.415Z,5.03
2024-04-24T17:12:56.011Z,3.55
2024-04-24T17:15:23.463Z,4.25
2024-04-24T17:17:50.930Z,5.35
2024-04-24T17:20:18.501Z,5.45
2024-04-24T17:22:46.475Z,5.03
2024-04-24T17:25:14.945Z,3.20
2024-04-24T17:27:45.412Z,2.97
2024-04-24T17:30:13.209Z,3.35
2024-04-24T17:32:41.247Z,3.70
2024-04-24T17:35:08.828Z,6.55
2024-04-24T17:37:36.512Z,3.90
2024-04-24T17:40:03.965Z,5.63
2024-04-24T17:42:31.417Z,2.72
2024-04-24T17:44:58.836Z,3.88
2024-04-24T17:47:27.411Z,4.97
2024-04-24T17:49:55.424Z,3.35
2024-04-24T17:52:23.319Z,3.38
2024-04-24T17:54:50.684Z,2.50
2024-04-24T17:57:18.051Z,7.25
2024-04-24T17:59:45.519Z,8.38
2024-04-24T18:02:12.991Z,3.35
2024-04-24T18:04:40.712Z,5.20
2024-04-24T18:07:08.099Z,3.58
2024-04-24T18:09:35.538Z,3.53
2024-04-24T18:12:03.204Z,3.75
2024-04-24T18:14:30.957Z,2.97
2024-04-24T18:16:58.765Z,3.05
2024-04-24T18:19:26.678Z,3.28
2024-04-24T18:21:54.008Z,4.13
2024-04-24T18:24:24.427Z,2.53
2024-04-24T18:26:51.837Z,2.85
2024-04-24T18:29:19.567Z,3.40
2024-04-24T18:31:46.941Z,2.67
2024-04-24T18:34:16.211Z,3.38
2024-04-24T18:36:44.129Z,4.53
2024-04-24T18:39:11.529Z,7.60
2024-04-24T18:41:38.928Z,4.10
2024-04-24T18:44:07.705Z,9.40
2024-04-24T18:46:35.109Z,6.93
2024-04-24T18:49:02.704Z,4.57
2024-04-24T18:51:30.226Z,4.30
2024-04-24T18:53:58.694Z,4.35
2024-04-24T18:56:26.708Z,3.38
2024-04-24T18:58:54.222Z,3.75
2024-04-24T19:01:23.223Z,3.80
2024-04-24T19:03:50.793Z,4.88
2024-04-24T19:06:18.160Z,4.47
2024-04-24T19:08:46.170Z,5.07
2024-04-24T19:11:13.664Z,5.05
2024-04-24T19:13:41.083Z,5.57
2024-04-24T19:16:08.880Z,7.85
2024-04-24T19:18:36.335Z,8.88
2024-04-24T19:21:06.498Z,6.97
2024-04-24T19:23:34.201Z,6.95
2024-04-24T19:26:01.587Z,5.18
2024-04-24T19:28:28.923Z,6.22
2024-04-24T19:30:56.250Z,5.55
2024-04-24T19:33:23.638Z,5.63
2024-04-24T19:35:53.523Z,8.45
2024-04-24T19:38:23.249Z,8.48
2024-04-24T19:40:50.650Z,6.97
2024-04-24T19:43:17.991Z,6.25
2024-04-24T19:45:46.624Z,8.50
2024-04-24T19:48:15.846Z,7.25
2024-04-24T19:50:43.750Z,7.43
2024-04-24T19:53:11.341Z,6.10
2024-04-24T19:55:39.332Z,6.25
2024-04-24T19:58:06.681Z,6.88
2024-04-24T20:00:34.155Z,5.55
2024-04-24T20:03:02.558Z,4.57
2024-04-24T20:05:30.061Z,5.50
2024-04-24T20:07:57.471Z,6.47
2024-04-24T20:10:24.805Z,4.10
2024-04-24T20:12:52.122Z,5.15
2024-04-24T20:15:19.500Z,6.20
2024-04-24T20:17:46.883Z,4.00
2024-04-24T20:20:14.835Z,6.07
2024-04-24T20:22:45.824Z,5.10
2024-04-24T20:25:13.741Z,5.32
2024-04-24T20:27:41.554Z,7.82
2024-04-24T20:30:09.354Z,3.40
2024-04-24T20:32:36.801Z,4.18
2024-04-24T20:35:04.724Z,3.42
2024-04-24T20:37:32.307Z,4.32
2024-04-24T20:39:59.656Z,5.05
2024-04-24T20:42:27.459Z,5.55
2024-04-24T20:44:57.678Z,7.53
2024-04-24T20:47:25.096Z,5.43
2024-04-24T20:49:52.521Z,7.05
2024-04-24T20:52:19.856Z,4.25
2024-04-24T20:54:47.311Z,4.32
2024-04-24T20:57:14.839Z,10.20
2024-04-24T20:59:42.442Z,7.05
2024-04-24T21:02:12.577Z,5.47
2024-04-24T21:04:40.130Z,5.72
2024-04-24T21:07:07.563Z,4.55
2024-04-24T21:09:37.497Z,4.13
2024-04-24T21:12:05.138Z,3.60
2024-04-24T21:14:32.876Z,4.18
2024-04-24T21:17:00.679Z,7.93
2024-04-24T21:19:28.201Z,5.72
2024-04-24T21:21:56.080Z,6.03
2024-04-24T21:24:24.176Z,4.07
2024-04-24T21:26:51.842Z,5.53
2024-04-24T21:29:19.270Z,4.93
2024-04-24T21:31:47.487Z,4.90
2024-04-24T21:34:15.187Z,5.50
2024-04-24T21:36:42.611Z,6.55
2024-04-24T21:39:11.920Z,7.28
2024-04-24T21:41:39.386Z,5.20
2024-04-24T21:44:06.788Z,5.65
2024-04-24T21:46:34.242Z,6.25
2024-04-24T21:49:01.658Z,7.63
2024-04-24T21:51:29.274Z,8.90
2024-04-24T21:53:58.152Z,5.70
2024-04-24T21:56:25.920Z,5.93
2024-04-24T21:58:56.429Z,8.82
2024-04-24T22:01:23.977Z,5.85
2024-04-24T22:03:51.536Z,9.05
2024-04-24T22:06:21.759Z,6.32
2024-04-24T22:08:49.360Z,7.82
2024-04-24T22:11:16.850Z,5.95
2024-04-24T22:13:44.398Z,5.10
2024-04-24T22:16:12.552Z,7.40
2024-04-24T22:18:40.750Z,7.75
2024-04-24T22:21:08.229Z,6.65
2024-04-24T22:23:35.701Z,7.68
2024-04-24T22:26:03.192Z,7.95
2024-04-24T22:28:30.566Z,6.38
2024-04-24T22:30:57.910Z,8.70
2024-04-24T22:33:26.121Z,8.40
2024-04-24T22:35:53.678Z,8.65
2024-04-24T22:38:21.071Z,12.25
2024-04-24T22:40:48.403Z,8.63
2024-04-24T22:43:15.769Z,10.82
2024-04-24T22:45:43.149Z,8.57
2024-04-24T22:48:10.556Z,7.63
2024-04-24T22:50:38.050Z,8.43
2024-04-24T22:53:05.665Z,8.77
2024-04-24T22:55:34.716Z,8.65
2024-04-24T22:58:02.135Z,9.38
2024-04-24T23:00:29.582Z,7.57
2024-04-24T23:02:57.559Z,7.07
2024-04-24T23:05:25.046Z,7.53
2024-04-24T23:07:52.452Z,8.82
2024-04-24T23:10:19.802Z,9.68
2024-04-24T23:12:47.159Z,11.05
2024-04-24T23:15:14.612Z,7.57
2024-04-24T23:17:42.095Z,8.18
2024-04-24T23:20:09.878Z,8.25
2024-04-24T23:22:37.298Z,8.02
2024-04-24T23:25:05.296Z,8.25
2024-04-24T23:27:32.611Z,9.45
2024-04-24T23:30:00.811Z,9.40
2024-04-24T23:32:28.204Z,7.30
2024-04-24T23:34:55.561Z,7.13
2024-04-24T23:37:22.915Z,8.85
2024-04-24T23:39:50.251Z,8.32
2024-04-24T23:42:17.592Z,9.18
2024-04-24T23:44:44.955Z,8.10
2024-04-24T23:47:12.376Z,8.02
2024-04-24T23:49:39.775Z,8.93
2024-04-24T23:52:07.057Z,8.60
2024-04-24T23:54:34.545Z,7.57
2024-04-24T23:57:01.999Z,9.15
2024-04-24T23:59:29.580Z,9.32
